Suraya Y — 9LD2366 — position and weather

sailwx.info

Track history (hours):
 
Tides and Currents Weather Stations Pressure Air Temp Water Temp Dewpoint Dewpoint Depression Visibility Wind Speed Wind Dir Waves Ship Positions

Suraya Y

Last reported at 2014-Nov-13 05:33 UTC. Time now 2014-Nov-27 06:44 UTC.
Position N 37°06' E 026°29'.
Warning: this ship's position is 14 days out of date.

Length 146 m; draft 9.2 m.

Type: Cargo ship. MMSI: 667005066.

Date/timePositionNaut miles runAvg speedWind from/ knotsBaromVisibWave heightAir tempDewpointWater temp
2014-Nov-13 05:33N 37°06' E 026°29'1010.0
2014-Nov-13 04:33N 37°13' E 026°20'1110.6
2014-Nov-13 03:33N 37°19' E 026°09'1010.3
2014-Nov-13 02:33N 37°26' E 025°59'246 8.7
2014-Nov-11 22:14N 40°52' E 028°52'2 2.4
2014-Nov-11 21:33N 40°51' E 028°54'1 0.8
2014-Nov-11 20:29N 40°51' E 028°55'9 9.0
2014-Nov-11 19:30N 40°48' E 029°06'4 3.6
2014-Nov-11 18:30N 40°49' E 029°10'0 0.4
2014-Nov-11 17:24N 40°49' E 029°11'0 0.4
2014-Nov-11 16:30N 40°50' E 029°11'1 0.4
2014-Nov-11 15:18N 40°50' E 029°11'0 0.1
2014-Nov-11 14:30N 40°50' E 029°11'0 0.1
2014-Nov-11 13:30N 40°50' E 029°11'0 0.2
2014-Nov-11 12:33N 40°50' E 029°10'1 0.5
2014-Nov-11 11:33N 40°50' E 029°10'5 4.8
2014-Nov-11 10:32N 40°48' E 029°04'9 9.3
2014-Nov-11 09:31N 40°55' E 028°56'  
2014-Nov-06 01:30N 40°57' E 028°59'3 1.4
2014-Nov-05 23:05N 40°58' E 028°54'0 0.0
2014-Nov-05 20:29N 40°58' E 028°54'0 0.0
2014-Nov-05 15:11N 40°58' E 028°54'0 0.0
2014-Nov-05 14:23N 40°58' E 028°54'0 0.0
2014-Nov-05 13:29N 40°58' E 028°54'0 0.0
2014-Nov-05 08:17N 40°58' E 028°54'0 0.0
2014-Nov-05 07:23N 40°58' E 028°54'0 0.0
2014-Nov-05 06:23N 40°58' E 028°54'0 0.0
2014-Nov-05 05:05N 40°58' E 028°54'0 0.0
2014-Nov-05 04:17N 40°58' E 028°54'0 0.0
2014-Nov-05 00:23N 40°58' E 028°54'0 0.0
2014-Nov-04 23:33N 40°58' E 028°54'6 6.2
2014-Nov-04 22:33N 40°52' E 028°51'243 9.3
2014-Nov-03 20:33N 37°31' E 025°55'1111.1
2014-Nov-03 19:33N 37°21' E 026°03'511.7
2014-Nov-03 19:09N 37°17' E 026°06'2 2.2
2014-Nov-03 18:26N 37°16' E 026°08'0 1.2
2014-Nov-03 18:11N 37°17' E 026°08'0 1.2
2014-Nov-03 17:48N 37°17' E 026°07'0 1.5
2014-Nov-03 17:31N 37°18' E 026°07'2 1.7
2014-Nov-03 16:30N 37°19' E 026°08'19 9.4
2014-Nov-03 14:29N 37°07' E 026°26'  
Track history (hours):
 
Tides and Currents Weather Stations Pressure Air Temp Water Temp Dewpoint Dewpoint Depression Visibility Wind Speed Wind Dir Waves Ship Positions

Suraya Y

Last reported at 2014-Nov-13 05:33 UTC. Time now 2014-Nov-27 06:44 UTC.
Position N 37°06' E 026°29'.
Warning: this ship's position is 14 days out of date.

Length 146 m; draft 9.2 m.

Type: Cargo ship. MMSI: 667005066.

Date/timePositionNaut miles runAvg speedWind from/ knotsBaromVisibWave heightAir tempDewpointWater temp
2014-Nov-13 05:33N 37°06' E 026°29'1010.0
2014-Nov-13 04:33N 37°13' E 026°20'1110.6
2014-Nov-13 03:33N 37°19' E 026°09'1010.3
2014-Nov-13 02:33N 37°26' E 025°59'246 8.7
2014-Nov-11 22:14N 40°52' E 028°52'2 2.4
2014-Nov-11 21:33N 40°51' E 028°54'1 0.8
2014-Nov-11 20:29N 40°51' E 028°55'9 9.0
2014-Nov-11 19:30N 40°48' E 029°06'4 3.6
2014-Nov-11 18:30N 40°49' E 029°10'0 0.4
2014-Nov-11 17:24N 40°49' E 029°11'0 0.4
2014-Nov-11 16:30N 40°50' E 029°11'1 0.4
2014-Nov-11 15:18N 40°50' E 029°11'0 0.1
2014-Nov-11 14:30N 40°50' E 029°11'0 0.1
2014-Nov-11 13:30N 40°50' E 029°11'0 0.2
2014-Nov-11 12:33N 40°50' E 029°10'1 0.5
2014-Nov-11 11:33N 40°50' E 029°10'5 4.8
2014-Nov-11 10:32N 40°48' E 029°04'9 9.3
2014-Nov-11 09:31N 40°55' E 028°56'  
2014-Nov-06 01:30N 40°57' E 028°59'3 1.4
2014-Nov-05 23:05N 40°58' E 028°54'0 0.0
2014-Nov-05 20:29N 40°58' E 028°54'0 0.0
2014-Nov-05 15:11N 40°58' E 028°54'0 0.0
2014-Nov-05 14:23N 40°58' E 028°54'0 0.0
2014-Nov-05 13:29N 40°58' E 028°54'0 0.0
2014-Nov-05 08:17N 40°58' E 028°54'0 0.0
2014-Nov-05 07:23N 40°58' E 028°54'0 0.0
2014-Nov-05 06:23N 40°58' E 028°54'0 0.0
2014-Nov-05 05:05N 40°58' E 028°54'0 0.0
2014-Nov-05 04:17N 40°58' E 028°54'0 0.0
2014-Nov-05 00:23N 40°58' E 028°54'0 0.0
2014-Nov-04 23:33N 40°58' E 028°54'6 6.2
2014-Nov-04 22:33N 40°52' E 028°51'243 9.3
2014-Nov-03 20:33N 37°31' E 025°55'1111.1
2014-Nov-03 19:33N 37°21' E 026°03'511.7
2014-Nov-03 19:09N 37°17' E 026°06'2 2.2
2014-Nov-03 18:26N 37°16' E 026°08'0 1.2
2014-Nov-03 18:11N 37°17' E 026°08'0 1.2
2014-Nov-03 17:48N 37°17' E 026°07'0 1.5
2014-Nov-03 17:31N 37°18' E 026°07'2 1.7
2014-Nov-03 16:30N 37°19' E 026°08'19 9.4
2014-Nov-03 14:29N 37°07' E 026°26'  

Dump ship's entire track history